Главная страница
METAR-TAF:

METAR-TAF

Аэропорты :

Маунт-Айза, Австралия

широта: 20-40S, долгота: 139-28E, высота над уровнем моря: 342 м

Текущие метеонаблюдения

Эта сводка был подготовлена 41 минут назад, в 17:30 UTC
Ветер 6 Узел от юго-юго-восточный
Температура 14°C
Влажность 41%
Давление 1017 hPa
Видимость 10 км и более
Рассеянная облачность на высоте 6800 фута
Рассеянная облачность на высоте 7600 фута

METAR: YBMA 251730Z AUTO 16006KT 9999 // BKN068 BKN076 14/01 Q1017

Время: 04:11 (18:11 UTC)

Прогноз

Эта сводка был подготовлена 1 час и 10 минут назад, в 17:01 UTC
Прогноз действительный с 25-го 18 UTC до 26-го 06 UTC
Ветер 5 Узел от южный
Видимость 10 км и более
Нет облачности ниже 1500 м, и нет кучево-дождевой облачности
С 25-го 2300 UTC
Ветер 10 Узел от восточный
Видимость 10 км и более
Рассеянная облачность на высоте 5000 фута

TAF: YBMA 251701Z 2518/2606 18005KT CAVOK FM252300 10010KT 9999 BKN050

Метеонаблюдения и прогнозы для более 4000 аэропортов (сводки METAR и TAF).

Имеющиеся станции представлены на карте желтыми и красными точками.

Чтобы увидеть название станции, наведите на нее мышь.

Затем щелкните, чтобы увидеть метеонаблюдения и метеопрогнозы.

Управление картой: чтобы увеличить масштаб, щелкните зеленые кнопки с черным крестиком; чтобы уменьшить масштаб, щелкните зеленую кнопку с тире; для просмотра соседних карт щелкайте зеленые стрелки.


METAR-TAF: